sensor_id;sensor_type;location;lat;lon;timestamp;P1;durP1;ratioP1;P2;durP2;ratioP2
52742;SDS011;55583;53.012;6.556;2023-06-14T00:01:46;4.28;;;2.20;;
52742;SDS011;55583;53.012;6.556;2023-06-14T00:04:12;14.88;;;2.80;;
52742;SDS011;55583;53.012;6.556;2023-06-14T00:06:38;5.47;;;2.38;;
52742;SDS011;55583;53.012;6.556;2023-06-14T00:09:04;9.57;;;2.58;;
52742;SDS011;55583;53.012;6.556;2023-06-14T00:11:30;7.10;;;2.53;;
52742;SDS011;55583;53.012;6.556;2023-06-14T00:13:57;8.93;;;2.20;;
52742;SDS011;55583;53.012;6.556;2023-06-14T00:16:22;7.22;;;2.33;;
52742;SDS011;55583;53.012;6.556;2023-06-14T00:18:49;4.13;;;1.88;;
52742;SDS011;55583;53.012;6.556;2023-06-14T00:21:16;3.95;;;2.05;;
52742;SDS011;55583;53.012;6.556;2023-06-14T00:23:42;5.90;;;2.97;;
52742;SDS011;55583;53.012;6.556;2023-06-14T00:26:08;9.38;;;2.35;;
52742;SDS011;55583;53.012;6.556;2023-06-14T00:28:34;4.40;;;2.45;;
52742;SDS011;55583;53.012;6.556;2023-06-14T00:30:59;4.40;;;2.30;;
52742;SDS011;55583;53.012;6.556;2023-06-14T00:33:25;5.75;;;1.90;;
52742;SDS011;55583;53.012;6.556;2023-06-14T00:35:50;5.00;;;2.22;;
52742;SDS011;55583;53.012;6.556;2023-06-14T00:38:19;3.55;;;1.83;;
52742;SDS011;55583;53.012;6.556;2023-06-14T00:40:45;5.88;;;1.75;;
52742;SDS011;55583;53.012;6.556;2023-06-14T00:43:10;5.60;;;2.25;;
52742;SDS011;55583;53.012;6.556;2023-06-14T00:45:36;2.70;;;1.67;;
52742;SDS011;55583;53.012;6.556;2023-06-14T00:48:02;6.28;;;2.10;;
52742;SDS011;55583;53.012;6.556;2023-06-14T00:50:28;6.10;;;2.10;;
52742;SDS011;55583;53.012;6.556;2023-06-14T00:52:57;8.43;;;2.35;;
52742;SDS011;55583;53.012;6.556;2023-06-14T00:55:22;7.78;;;2.53;;
52742;SDS011;55583;53.012;6.556;2023-06-14T00:57:48;4.28;;;1.88;;
52742;SDS011;55583;53.012;6.556;2023-06-14T01:00:14;2.85;;;2.03;;
52742;SDS011;55583;53.012;6.556;2023-06-14T01:02:40;5.63;;;1.65;;
52742;SDS011;55583;53.012;6.556;2023-06-14T01:05:06;9.10;;;2.55;;
52742;SDS011;55583;53.012;6.556;2023-06-14T01:13:06;7.82;;;2.30;;
52742;SDS011;55583;53.012;6.556;2023-06-14T01:15:38;5.20;;;2.08;;
52742;SDS011;55583;53.012;6.556;2023-06-14T01:18:05;4.95;;;2.17;;
52742;SDS011;55583;53.012;6.556;2023-06-14T01:20:32;6.25;;;2.22;;
52742;SDS011;55583;53.012;6.556;2023-06-14T01:23:01;7.10;;;2.38;;
52742;SDS011;55583;53.012;6.556;2023-06-14T01:25:27;9.27;;;3.22;;
52742;SDS011;55583;53.012;6.556;2023-06-14T01:27:55;4.75;;;2.67;;
52742;SDS011;55583;53.012;6.556;2023-06-14T01:30:27;7.03;;;3.08;;
52742;SDS011;55583;53.012;6.556;2023-06-14T01:32:56;7.97;;;3.00;;
52742;SDS011;55583;53.012;6.556;2023-06-14T01:35:23;6.70;;;2.70;;
52742;SDS011;55583;53.012;6.556;2023-06-14T01:37:48;4.90;;;2.47;;
52742;SDS011;55583;53.012;6.556;2023-06-14T01:40:15;7.55;;;2.65;;
52742;SDS011;55583;53.012;6.556;2023-06-14T01:42:43;7.30;;;2.65;;
52742;SDS011;55583;53.012;6.556;2023-06-14T01:45:11;7.05;;;2.70;;
52742;SDS011;55583;53.012;6.556;2023-06-14T01:47:37;10.55;;;3.22;;
52742;SDS011;55583;53.012;6.556;2023-06-14T01:50:03;9.55;;;2.60;;
52742;SDS011;55583;53.012;6.556;2023-06-14T01:52:29;8.50;;;2.58;;
52742;SDS011;55583;53.012;6.556;2023-06-14T01:54:55;9.00;;;3.20;;
52742;SDS011;55583;53.012;6.556;2023-06-14T01:57:21;5.30;;;2.60;;
52742;SDS011;55583;53.012;6.556;2023-06-14T01:59:47;6.20;;;2.70;;
52742;SDS011;55583;53.012;6.556;2023-06-14T02:02:14;7.03;;;2.58;;
52742;SDS011;55583;53.012;6.556;2023-06-14T02:04:40;3.30;;;2.45;;
52742;SDS011;55583;53.012;6.556;2023-06-14T02:07:06;6.30;;;2.92;;
52742;SDS011;55583;53.012;6.556;2023-06-14T02:09:33;7.88;;;2.42;;
52742;SDS011;55583;53.012;6.556;2023-06-14T02:11:59;4.30;;;2.75;;
52742;SDS011;55583;53.012;6.556;2023-06-14T02:14:24;5.53;;;2.30;;
52742;SDS011;55583;53.012;6.556;2023-06-14T02:16:51;6.03;;;2.58;;
52742;SDS011;55583;53.012;6.556;2023-06-14T02:19:18;3.72;;;2.17;;
52742;SDS011;55583;53.012;6.556;2023-06-14T02:21:44;3.60;;;2.38;;
52742;SDS011;55583;53.012;6.556;2023-06-14T02:24:11;7.75;;;2.72;;
52742;SDS011;55583;53.012;6.556;2023-06-14T02:26:36;5.32;;;2.58;;
52742;SDS011;55583;53.012;6.556;2023-06-14T02:29:08;6.75;;;2.88;;
52742;SDS011;55583;53.012;6.556;2023-06-14T02:31:36;3.60;;;2.10;;
52742;SDS011;55583;53.012;6.556;2023-06-14T02:34:02;3.65;;;2.30;;
52742;SDS011;55583;53.012;6.556;2023-06-14T02:36:27;7.20;;;2.75;;
52742;SDS011;55583;53.012;6.556;2023-06-14T02:38:56;6.80;;;2.85;;
52742;SDS011;55583;53.012;6.556;2023-06-14T02:41:25;4.43;;;2.47;;
52742;SDS011;55583;53.012;6.556;2023-06-14T02:43:52;3.22;;;2.45;;
52742;SDS011;55583;53.012;6.556;2023-06-14T02:46:17;5.55;;;3.05;;
52742;SDS011;55583;53.012;6.556;2023-06-14T02:48:43;3.55;;;2.30;;
52742;SDS011;55583;53.012;6.556;2023-06-14T02:51:09;6.63;;;2.33;;
52742;SDS011;55583;53.012;6.556;2023-06-14T02:53:35;5.63;;;3.10;;
52742;SDS011;55583;53.012;6.556;2023-06-14T02:56:01;5.43;;;2.42;;
52742;SDS011;55583;53.012;6.556;2023-06-14T02:58:28;5.43;;;2.75;;
52742;SDS011;55583;53.012;6.556;2023-06-14T03:00:54;9.43;;;2.42;;
52742;SDS011;55583;53.012;6.556;2023-06-14T03:03:20;4.80;;;2.33;;
52742;SDS011;55583;53.012;6.556;2023-06-14T03:05:47;4.53;;;2.38;;
52742;SDS011;55583;53.012;6.556;2023-06-14T03:08:14;6.40;;;2.65;;
52742;SDS011;55583;53.012;6.556;2023-06-14T03:10:45;7.47;;;2.70;;
52742;SDS011;55583;53.012;6.556;2023-06-14T03:13:11;8.70;;;2.90;;
52742;SDS011;55583;53.012;6.556;2023-06-14T03:15:46;8.65;;;3.00;;
52742;SDS011;55583;53.012;6.556;2023-06-14T03:18:12;6.07;;;2.72;;
52742;SDS011;55583;53.012;6.556;2023-06-14T03:20:40;7.32;;;2.72;;
52742;SDS011;55583;53.012;6.556;2023-06-14T03:23:06;7.15;;;2.60;;
52742;SDS011;55583;53.012;6.556;2023-06-14T03:25:32;5.85;;;2.25;;
52742;SDS011;55583;53.012;6.556;2023-06-14T03:28:03;5.88;;;2.85;;
52742;SDS011;55583;53.012;6.556;2023-06-14T03:30:29;5.43;;;2.92;;
52742;SDS011;55583;53.012;6.556;2023-06-14T03:32:55;6.35;;;2.80;;
52742;SDS011;55583;53.012;6.556;2023-06-14T03:35:22;6.45;;;2.40;;
52742;SDS011;55583;53.012;6.556;2023-06-14T03:37:48;8.30;;;2.63;;
52742;SDS011;55583;53.012;6.556;2023-06-14T03:40:15;5.15;;;2.90;;
52742;SDS011;55583;53.012;6.556;2023-06-14T03:42:43;6.25;;;3.10;;
52742;SDS011;55583;53.012;6.556;2023-06-14T03:45:08;6.75;;;3.17;;
52742;SDS011;55583;53.012;6.556;2023-06-14T03:47:34;8.95;;;2.88;;
52742;SDS011;55583;53.012;6.556;2023-06-14T03:50:03;8.13;;;2.67;;
52742;SDS011;55583;53.012;6.556;2023-06-14T03:52:29;6.80;;;3.35;;
52742;SDS011;55583;53.012;6.556;2023-06-14T03:54:56;4.43;;;2.78;;
52742;SDS011;55583;53.012;6.556;2023-06-14T03:57:22;6.22;;;3.08;;
52742;SDS011;55583;53.012;6.556;2023-06-14T03:59:51;6.38;;;2.70;;
52742;SDS011;55583;53.012;6.556;2023-06-14T04:02:17;8.63;;;3.20;;
52742;SDS011;55583;53.012;6.556;2023-06-14T04:04:43;4.63;;;3.03;;
52742;SDS011;55583;53.012;6.556;2023-06-14T04:07:13;12.00;;;3.00;;
52742;SDS011;55583;53.012;6.556;2023-06-14T04:09:39;3.97;;;2.83;;
52742;SDS011;55583;53.012;6.556;2023-06-14T04:12:06;5.32;;;2.83;;
52742;SDS011;55583;53.012;6.556;2023-06-14T04:14:33;6.68;;;3.20;;
52742;SDS011;55583;53.012;6.556;2023-06-14T04:16:59;5.97;;;3.55;;
52742;SDS011;55583;53.012;6.556;2023-06-14T04:19:25;7.15;;;3.15;;
52742;SDS011;55583;53.012;6.556;2023-06-14T04:21:51;7.40;;;3.50;;
52742;SDS011;55583;53.012;6.556;2023-06-14T04:24:17;10.63;;;3.65;;
52742;SDS011;55583;53.012;6.556;2023-06-14T04:26:43;4.82;;;2.90;;
52742;SDS011;55583;53.012;6.556;2023-06-14T04:29:16;7.07;;;2.97;;
52742;SDS011;55583;53.012;6.556;2023-06-14T04:31:45;7.07;;;3.53;;
52742;SDS011;55583;53.012;6.556;2023-06-14T04:34:11;8.57;;;3.08;;
52742;SDS011;55583;53.012;6.556;2023-06-14T04:36:41;4.00;;;2.83;;
52742;SDS011;55583;53.012;6.556;2023-06-14T04:39:17;7.50;;;3.35;;
52742;SDS011;55583;53.012;6.556;2023-06-14T04:41:43;6.55;;;3.38;;
52742;SDS011;55583;53.012;6.556;2023-06-14T04:44:09;6.85;;;3.75;;
52742;SDS011;55583;53.012;6.556;2023-06-14T04:46:35;6.63;;;3.05;;
52742;SDS011;55583;53.012;6.556;2023-06-14T04:49:09;9.70;;;3.78;;
52742;SDS011;55583;53.012;6.556;2023-06-14T04:51:35;6.90;;;3.47;;
52742;SDS011;55583;53.012;6.556;2023-06-14T04:54:02;7.80;;;3.13;;
52742;SDS011;55583;53.012;6.556;2023-06-14T04:56:28;5.25;;;2.90;;
52742;SDS011;55583;53.012;6.556;2023-06-14T04:58:54;8.27;;;2.70;;
52742;SDS011;55583;53.012;6.556;2023-06-14T05:01:21;4.38;;;2.90;;
52742;SDS011;55583;53.012;6.556;2023-06-14T05:03:48;10.23;;;4.43;;
52742;SDS011;55583;53.012;6.556;2023-06-14T05:06:14;9.70;;;3.05;;
52742;SDS011;55583;53.012;6.556;2023-06-14T05:08:40;5.45;;;3.38;;
52742;SDS011;55583;53.012;6.556;2023-06-14T05:11:06;5.47;;;3.50;;
52742;SDS011;55583;53.012;6.556;2023-06-14T05:13:32;11.80;;;3.58;;
52742;SDS011;55583;53.012;6.556;2023-06-14T05:15:58;10.13;;;4.25;;
52742;SDS011;55583;53.012;6.556;2023-06-14T05:18:24;7.93;;;3.20;;
52742;SDS011;55583;53.012;6.556;2023-06-14T05:20:50;6.53;;;3.33;;
52742;SDS011;55583;53.012;6.556;2023-06-14T05:23:16;6.05;;;2.88;;
52742;SDS011;55583;53.012;6.556;2023-06-14T05:25:45;6.88;;;3.42;;
52742;SDS011;55583;53.012;6.556;2023-06-14T05:28:11;6.68;;;3.47;;
52742;SDS011;55583;53.012;6.556;2023-06-14T05:30:37;8.65;;;3.22;;
52742;SDS011;55583;53.012;6.556;2023-06-14T05:33:04;8.05;;;3.42;;
52742;SDS011;55583;53.012;6.556;2023-06-14T05:35:29;4.60;;;3.20;;
52742;SDS011;55583;53.012;6.556;2023-06-14T05:37:55;9.70;;;3.75;;
52742;SDS011;55583;53.012;6.556;2023-06-14T05:40:21;8.75;;;3.53;;
52742;SDS011;55583;53.012;6.556;2023-06-14T05:42:47;9.93;;;3.35;;
52742;SDS011;55583;53.012;6.556;2023-06-14T05:45:16;9.75;;;3.65;;
52742;SDS011;55583;53.012;6.556;2023-06-14T05:47:42;7.38;;;2.83;;
52742;SDS011;55583;53.012;6.556;2023-06-14T05:50:07;11.48;;;3.95;;
52742;SDS011;55583;53.012;6.556;2023-06-14T05:52:34;9.13;;;3.65;;
52742;SDS011;55583;53.012;6.556;2023-06-14T05:55:01;6.72;;;3.53;;
52742;SDS011;55583;53.012;6.556;2023-06-14T05:57:28;6.95;;;2.97;;
52742;SDS011;55583;53.012;6.556;2023-06-14T05:59:54;8.85;;;3.45;;
52742;SDS011;55583;53.012;6.556;2023-06-14T06:02:20;8.90;;;4.20;;
52742;SDS011;55583;53.012;6.556;2023-06-14T06:04:45;6.75;;;2.80;;
52742;SDS011;55583;53.012;6.556;2023-06-14T06:07:11;7.28;;;3.75;;
52742;SDS011;55583;53.012;6.556;2023-06-14T06:09:37;7.07;;;2.90;;
52742;SDS011;55583;53.012;6.556;2023-06-14T06:12:02;6.65;;;3.35;;
52742;SDS011;55583;53.012;6.556;2023-06-14T06:14:30;9.13;;;3.38;;
52742;SDS011;55583;53.012;6.556;2023-06-14T06:16:55;6.22;;;3.35;;
52742;SDS011;55583;53.012;6.556;2023-06-14T06:19:21;10.25;;;3.45;;
52742;SDS011;55583;53.012;6.556;2023-06-14T06:21:47;7.55;;;3.03;;
52742;SDS011;55583;53.012;6.556;2023-06-14T06:24:13;8.93;;;3.55;;
52742;SDS011;55583;53.012;6.556;2023-06-14T06:26:38;7.45;;;2.95;;
52742;SDS011;55583;53.012;6.556;2023-06-14T06:29:05;10.07;;;3.25;;
52742;SDS011;55583;53.012;6.556;2023-06-14T06:31:31;10.68;;;3.38;;
52742;SDS011;55583;53.012;6.556;2023-06-14T06:33:56;6.28;;;3.03;;
52742;SDS011;55583;53.012;6.556;2023-06-14T06:36:22;6.03;;;2.53;;
52742;SDS011;55583;53.012;6.556;2023-06-14T06:38:48;5.82;;;2.63;;
52742;SDS011;55583;53.012;6.556;2023-06-14T06:41:13;3.85;;;2.35;;
52742;SDS011;55583;53.012;6.556;2023-06-14T06:43:39;5.22;;;2.55;;
52742;SDS011;55583;53.012;6.556;2023-06-14T06:46:05;4.60;;;2.88;;
52742;SDS011;55583;53.012;6.556;2023-06-14T06:48:31;4.53;;;2.67;;
52742;SDS011;55583;53.012;6.556;2023-06-14T06:50:56;3.05;;;2.65;;
52742;SDS011;55583;53.012;6.556;2023-06-14T06:53:22;14.40;;;2.90;;
52742;SDS011;55583;53.012;6.556;2023-06-14T06:55:48;3.45;;;2.33;;
52742;SDS011;55583;53.012;6.556;2023-06-14T06:58:13;5.95;;;2.60;;
52742;SDS011;55583;53.012;6.556;2023-06-14T07:00:39;6.10;;;2.75;;
52742;SDS011;55583;53.012;6.556;2023-06-14T07:03:06;5.93;;;2.42;;
52742;SDS011;55583;53.012;6.556;2023-06-14T07:05:31;5.78;;;2.50;;
52742;SDS011;55583;53.012;6.556;2023-06-14T07:07:57;6.93;;;2.70;;
52742;SDS011;55583;53.012;6.556;2023-06-14T07:10:23;7.18;;;2.65;;
52742;SDS011;55583;53.012;6.556;2023-06-14T07:12:49;4.50;;;2.08;;
52742;SDS011;55583;53.012;6.556;2023-06-14T07:15:15;4.38;;;2.40;;
52742;SDS011;55583;53.012;6.556;2023-06-14T07:17:41;5.85;;;2.40;;
52742;SDS011;55583;53.012;6.556;2023-06-14T07:20:07;4.22;;;2.17;;
52742;SDS011;55583;53.012;6.556;2023-06-14T07:22:40;4.38;;;2.50;;
52742;SDS011;55583;53.012;6.556;2023-06-14T07:25:08;4.43;;;2.65;;
52742;SDS011;55583;53.012;6.556;2023-06-14T07:27:34;6.55;;;2.25;;
52742;SDS011;55583;53.012;6.556;2023-06-14T07:29:59;3.45;;;2.33;;
52742;SDS011;55583;53.012;6.556;2023-06-14T07:32:25;5.55;;;2.10;;
52742;SDS011;55583;53.012;6.556;2023-06-14T07:34:50;6.32;;;2.53;;
52742;SDS011;55583;53.012;6.556;2023-06-14T07:37:16;4.60;;;2.50;;
52742;SDS011;55583;53.012;6.556;2023-06-14T07:39:42;11.15;;;2.38;;
52742;SDS011;55583;53.012;6.556;2023-06-14T07:42:07;3.97;;;2.22;;
52742;SDS011;55583;53.012;6.556;2023-06-14T07:44:33;10.20;;;2.53;;
52742;SDS011;55583;53.012;6.556;2023-06-14T07:46:59;6.95;;;2.55;;
52742;SDS011;55583;53.012;6.556;2023-06-14T07:49:28;7.22;;;1.90;;
52742;SDS011;55583;53.012;6.556;2023-06-14T07:51:53;4.65;;;2.15;;
52742;SDS011;55583;53.012;6.556;2023-06-14T07:54:19;4.55;;;2.58;;
52742;SDS011;55583;53.012;6.556;2023-06-14T07:56:49;4.18;;;2.55;;
52742;SDS011;55583;53.012;6.556;2023-06-14T07:59:15;10.52;;;2.40;;
52742;SDS011;55583;53.012;6.556;2023-06-14T08:01:41;3.22;;;2.10;;
52742;SDS011;55583;53.012;6.556;2023-06-14T08:04:12;5.00;;;2.70;;
52742;SDS011;55583;53.012;6.556;2023-06-14T08:06:38;4.45;;;2.10;;
52742;SDS011;55583;53.012;6.556;2023-06-14T08:09:04;3.25;;;2.53;;
52742;SDS011;55583;53.012;6.556;2023-06-14T08:11:30;5.88;;;2.13;;
52742;SDS011;55583;53.012;6.556;2023-06-14T08:13:56;5.70;;;2.15;;
52742;SDS011;55583;53.012;6.556;2023-06-14T08:16:22;4.47;;;2.25;;
52742;SDS011;55583;53.012;6.556;2023-06-14T08:18:48;5.70;;;2.30;;
52742;SDS011;55583;53.012;6.556;2023-06-14T08:21:14;4.10;;;2.05;;
52742;SDS011;55583;53.012;6.556;2023-06-14T08:23:40;6.03;;;2.83;;
52742;SDS011;55583;53.012;6.556;2023-06-14T08:26:08;3.33;;;2.30;;
52742;SDS011;55583;53.012;6.556;2023-06-14T08:28:34;7.57;;;2.22;;
52742;SDS011;55583;53.012;6.556;2023-06-14T08:31:00;3.75;;;2.13;;
52742;SDS011;55583;53.012;6.556;2023-06-14T08:33:26;6.72;;;1.90;;
52742;SDS011;55583;53.012;6.556;2023-06-14T08:35:52;5.68;;;2.03;;
52742;SDS011;55583;53.012;6.556;2023-06-14T08:38:18;5.10;;;2.22;;
52742;SDS011;55583;53.012;6.556;2023-06-14T08:40:43;3.75;;;2.45;;
52742;SDS011;55583;53.012;6.556;2023-06-14T08:43:12;3.97;;;2.28;;
52742;SDS011;55583;53.012;6.556;2023-06-14T08:45:38;2.97;;;1.85;;
52742;SDS011;55583;53.012;6.556;2023-06-14T08:48:08;6.20;;;2.22;;
52742;SDS011;55583;53.012;6.556;2023-06-14T08:50:34;4.78;;;2.25;;
52742;SDS011;55583;53.012;6.556;2023-06-14T08:53:01;4.78;;;2.13;;
52742;SDS011;55583;53.012;6.556;2023-06-14T08:55:28;4.80;;;2.30;;
52742;SDS011;55583;53.012;6.556;2023-06-14T08:57:55;4.65;;;1.98;;
52742;SDS011;55583;53.012;6.556;2023-06-14T09:00:23;3.78;;;2.05;;
52742;SDS011;55583;53.012;6.556;2023-06-14T09:02:50;9.00;;;2.00;;
52742;SDS011;55583;53.012;6.556;2023-06-14T09:05:21;9.13;;;2.05;;
52742;SDS011;55583;53.012;6.556;2023-06-14T09:07:50;5.35;;;2.42;;
52742;SDS011;55583;53.012;6.556;2023-06-14T09:10:16;3.67;;;2.40;;
52742;SDS011;55583;53.012;6.556;2023-06-14T09:12:42;3.53;;;2.00;;
52742;SDS011;55583;53.012;6.556;2023-06-14T09:15:09;4.47;;;2.20;;
52742;SDS011;55583;53.012;6.556;2023-06-14T09:17:35;4.82;;;2.25;;
52742;SDS011;55583;53.012;6.556;2023-06-14T09:20:02;5.47;;;1.75;;
52742;SDS011;55583;53.012;6.556;2023-06-14T09:24:59;2.75;;;1.60;;
52742;SDS011;55583;53.012;6.556;2023-06-14T09:27:25;5.07;;;1.65;;
52742;SDS011;55583;53.012;6.556;2023-06-14T09:29:52;3.33;;;1.80;;
52742;SDS011;55583;53.012;6.556;2023-06-14T09:32:18;3.03;;;1.70;;
52742;SDS011;55583;53.012;6.556;2023-06-14T09:34:44;22.20;;;2.58;;
52742;SDS011;55583;53.012;6.556;2023-06-14T09:37:11;6.05;;;1.77;;
52742;SDS011;55583;53.012;6.556;2023-06-14T09:39:49;5.88;;;2.30;;
52742;SDS011;55583;53.012;6.556;2023-06-14T09:42:16;4.95;;;1.83;;
52742;SDS011;55583;53.012;6.556;2023-06-14T09:44:46;9.02;;;2.05;;
52742;SDS011;55583;53.012;6.556;2023-06-14T09:47:13;6.30;;;2.38;;
52742;SDS011;55583;53.012;6.556;2023-06-14T09:49:40;3.60;;;2.05;;
52742;SDS011;55583;53.012;6.556;2023-06-14T09:52:06;5.25;;;2.20;;
52742;SDS011;55583;53.012;6.556;2023-06-14T09:54:34;6.55;;;2.13;;
52742;SDS011;55583;53.012;6.556;2023-06-14T09:57:08;2.33;;;1.92;;
52742;SDS011;55583;53.012;6.556;2023-06-14T09:59:40;4.35;;;1.85;;
52742;SDS011;55583;53.012;6.556;2023-06-14T10:02:10;1.85;;;1.70;;
52742;SDS011;55583;53.012;6.556;2023-06-14T10:05:05;3.40;;;1.98;;
52742;SDS011;55583;53.012;6.556;2023-06-14T10:07:44;11.35;;;2.10;;
52742;SDS011;55583;53.012;6.556;2023-06-14T10:12:41;3.55;;;1.55;;
52742;SDS011;55583;53.012;6.556;2023-06-14T10:15:11;2.88;;;2.00;;
52742;SDS011;55583;53.012;6.556;2023-06-14T10:17:47;4.65;;;1.90;;
52742;SDS011;55583;53.012;6.556;2023-06-14T10:23:12;4.90;;;2.28;;
52742;SDS011;55583;53.012;6.556;2023-06-14T10:25:43;4.07;;;1.90;;
52742;SDS011;55583;53.012;6.556;2023-06-14T10:28:19;3.28;;;1.50;;
52742;SDS011;55583;53.012;6.556;2023-06-14T10:31:01;6.93;;;1.35;;
52742;SDS011;55583;53.012;6.556;2023-06-14T10:33:31;5.38;;;1.70;;
52742;SDS011;55583;53.012;6.556;2023-06-14T10:36:09;5.93;;;1.67;;
52742;SDS011;55583;53.012;6.556;2023-06-14T10:41:54;3.55;;;1.77;;
52742;SDS011;55583;53.012;6.556;2023-06-14T10:46:48;1.98;;;1.27;;
52742;SDS011;55583;53.012;6.556;2023-06-14T10:49:18;3.00;;;1.75;;
52742;SDS011;55583;53.012;6.556;2023-06-14T10:51:44;8.65;;;2.17;;
52742;SDS011;55583;53.012;6.556;2023-06-14T10:54:14;25.52;;;2.65;;
52742;SDS011;55583;53.012;6.556;2023-06-14T10:56:47;6.13;;;2.03;;
52742;SDS011;55583;53.012;6.556;2023-06-14T10:59:14;4.15;;;1.50;;
52742;SDS011;55583;53.012;6.556;2023-06-14T11:04:49;3.60;;;1.40;;
52742;SDS011;55583;53.012;6.556;2023-06-14T11:10:31;3.05;;;1.45;;
52742;SDS011;55583;53.012;6.556;2023-06-14T11:13:04;2.17;;;1.10;;
52742;SDS011;55583;53.012;6.556;2023-06-14T11:15:31;2.72;;;1.45;;
52742;SDS011;55583;53.012;6.556;2023-06-14T11:18:07;2.58;;;1.55;;
52742;SDS011;55583;53.012;6.556;2023-06-14T11:20:36;4.75;;;1.20;;
52742;SDS011;55583;53.012;6.556;2023-06-14T11:23:03;7.57;;;1.60;;
52742;SDS011;55583;53.012;6.556;2023-06-14T11:25:29;1.52;;;1.40;;
52742;SDS011;55583;53.012;6.556;2023-06-14T11:27:55;2.75;;;1.30;;
52742;SDS011;55583;53.012;6.556;2023-06-14T11:30:22;6.03;;;1.33;;
52742;SDS011;55583;53.012;6.556;2023-06-14T11:32:48;4.15;;;1.60;;
52742;SDS011;55583;53.012;6.556;2023-06-14T11:35:15;3.33;;;1.60;;
52742;SDS011;55583;53.012;6.556;2023-06-14T11:37:42;3.72;;;1.80;;
52742;SDS011;55583;53.012;6.556;2023-06-14T11:40:09;1.33;;;1.20;;
52742;SDS011;55583;53.012;6.556;2023-06-14T11:42:37;2.03;;;1.63;;
52742;SDS011;55583;53.012;6.556;2023-06-14T11:45:04;3.70;;;1.70;;
52742;SDS011;55583;53.012;6.556;2023-06-14T11:47:33;6.50;;;1.55;;
52742;SDS011;55583;53.012;6.556;2023-06-14T11:50:00;4.05;;;1.52;;
52742;SDS011;55583;53.012;6.556;2023-06-14T11:52:25;5.95;;;1.40;;
52742;SDS011;55583;53.012;6.556;2023-06-14T11:54:52;2.78;;;1.30;;
52742;SDS011;55583;53.012;6.556;2023-06-14T11:57:18;3.90;;;1.70;;
52742;SDS011;55583;53.012;6.556;2023-06-14T11:59:44;1.48;;;1.20;;
52742;SDS011;55583;53.012;6.556;2023-06-14T12:02:16;3.03;;;1.40;;
52742;SDS011;55583;53.012;6.556;2023-06-14T12:04:43;3.13;;;1.30;;
52742;SDS011;55583;53.012;6.556;2023-06-14T12:07:12;3.53;;;1.45;;
52742;SDS011;55583;53.012;6.556;2023-06-14T12:09:43;6.35;;;1.10;;
52742;SDS011;55583;53.012;6.556;2023-06-14T12:12:34;2.67;;;1.50;;
52742;SDS011;55583;53.012;6.556;2023-06-14T12:15:05;2.15;;;1.30;;
52742;SDS011;55583;53.012;6.556;2023-06-14T12:17:35;2.28;;;1.40;;
52742;SDS011;55583;53.012;6.556;2023-06-14T12:20:07;2.65;;;1.35;;
52742;SDS011;55583;53.012;6.556;2023-06-14T12:22:57;2.28;;;1.55;;
52742;SDS011;55583;53.012;6.556;2023-06-14T12:25:35;1.58;;;1.17;;
52742;SDS011;55583;53.012;6.556;2023-06-14T12:28:07;4.47;;;1.30;;
52742;SDS011;55583;53.012;6.556;2023-06-14T12:30:34;2.70;;;1.33;;
52742;SDS011;55583;53.012;6.556;2023-06-14T12:33:01;2.83;;;1.30;;
52742;SDS011;55583;53.012;6.556;2023-06-14T12:35:27;2.08;;;1.40;;
52742;SDS011;55583;53.012;6.556;2023-06-14T12:37:53;1.55;;;1.40;;
52742;SDS011;55583;53.012;6.556;2023-06-14T12:40:19;4.80;;;1.88;;
52742;SDS011;55583;53.012;6.556;2023-06-14T12:42:44;8.05;;;1.58;;
52742;SDS011;55583;53.012;6.556;2023-06-14T12:45:12;2.90;;;1.55;;
52742;SDS011;55583;53.012;6.556;2023-06-14T12:47:38;3.08;;;1.52;;
52742;SDS011;55583;53.012;6.556;2023-06-14T12:50:04;1.23;;;1.00;;
52742;SDS011;55583;53.012;6.556;2023-06-14T12:52:30;6.57;;;1.45;;
52742;SDS011;55583;53.012;6.556;2023-06-14T12:54:56;2.95;;;1.20;;
52742;SDS011;55583;53.012;6.556;2023-06-14T12:57:22;2.03;;;1.40;;
52742;SDS011;55583;53.012;6.556;2023-06-14T12:59:48;2.92;;;1.20;;
52742;SDS011;55583;53.012;6.556;2023-06-14T13:02:15;2.10;;;1.15;;
52742;SDS011;55583;53.012;6.556;2023-06-14T13:04:43;3.10;;;1.25;;
52742;SDS011;55583;53.012;6.556;2023-06-14T13:07:09;3.90;;;1.60;;
52742;SDS011;55583;53.012;6.556;2023-06-14T13:09:35;2.78;;;1.25;;
52742;SDS011;55583;53.012;6.556;2023-06-14T13:12:01;2.28;;;1.13;;
52742;SDS011;55583;53.012;6.556;2023-06-14T13:14:28;6.78;;;1.50;;
52742;SDS011;55583;53.012;6.556;2023-06-14T13:16:53;2.45;;;1.20;;
52742;SDS011;55583;53.012;6.556;2023-06-14T13:19:20;2.33;;;1.10;;
52742;SDS011;55583;53.012;6.556;2023-06-14T13:21:46;2.80;;;1.17;;
52742;SDS011;55583;53.012;6.556;2023-06-14T13:24:12;2.03;;;1.33;;
52742;SDS011;55583;53.012;6.556;2023-06-14T13:26:38;2.55;;;1.30;;
52742;SDS011;55583;53.012;6.556;2023-06-14T13:29:04;3.33;;;1.13;;
52742;SDS011;55583;53.012;6.556;2023-06-14T13:31:30;2.50;;;1.15;;
52742;SDS011;55583;53.012;6.556;2023-06-14T13:33:55;2.45;;;1.50;;
52742;SDS011;55583;53.012;6.556;2023-06-14T13:36:21;4.10;;;1.77;;
52742;SDS011;55583;53.012;6.556;2023-06-14T13:38:47;3.22;;;1.30;;
52742;SDS011;55583;53.012;6.556;2023-06-14T13:41:12;4.72;;;1.25;;
52742;SDS011;55583;53.012;6.556;2023-06-14T13:43:38;3.85;;;1.20;;
52742;SDS011;55583;53.012;6.556;2023-06-14T13:46:07;4.18;;;1.35;;
52742;SDS011;55583;53.012;6.556;2023-06-14T13:48:32;6.15;;;1.20;;
52742;SDS011;55583;53.012;6.556;2023-06-14T13:50:59;4.25;;;1.60;;
52742;SDS011;55583;53.012;6.556;2023-06-14T13:53:25;1.38;;;1.25;;
52742;SDS011;55583;53.012;6.556;2023-06-14T13:55:51;7.47;;;1.58;;
52742;SDS011;55583;53.012;6.556;2023-06-14T13:58:17;3.33;;;1.42;;
52742;SDS011;55583;53.012;6.556;2023-06-14T14:00:44;6.20;;;1.40;;
52742;SDS011;55583;53.012;6.556;2023-06-14T14:03:09;5.88;;;1.17;;
52742;SDS011;55583;53.012;6.556;2023-06-14T14:05:36;2.10;;;1.35;;
52742;SDS011;55583;53.012;6.556;2023-06-14T14:08:02;3.38;;;1.33;;
52742;SDS011;55583;53.012;6.556;2023-06-14T14:10:28;2.08;;;1.50;;
52742;SDS011;55583;53.012;6.556;2023-06-14T14:12:54;3.85;;;1.60;;
52742;SDS011;55583;53.012;6.556;2023-06-14T14:15:20;2.65;;;1.30;;
52742;SDS011;55583;53.012;6.556;2023-06-14T14:17:45;2.88;;;1.58;;
52742;SDS011;55583;53.012;6.556;2023-06-14T14:20:12;2.10;;;1.13;;
52742;SDS011;55583;53.012;6.556;2023-06-14T14:22:40;4.40;;;1.60;;
52742;SDS011;55583;53.012;6.556;2023-06-14T14:25:06;1.48;;;1.30;;
52742;SDS011;55583;53.012;6.556;2023-06-14T14:27:32;4.32;;;1.38;;
52742;SDS011;55583;53.012;6.556;2023-06-14T14:29:58;3.80;;;1.70;;
52742;SDS011;55583;53.012;6.556;2023-06-14T14:32:23;4.68;;;1.67;;
52742;SDS011;55583;53.012;6.556;2023-06-14T14:34:49;3.83;;;1.38;;
52742;SDS011;55583;53.012;6.556;2023-06-14T14:37:15;2.20;;;1.75;;
52742;SDS011;55583;53.012;6.556;2023-06-14T14:39:41;4.20;;;1.45;;
52742;SDS011;55583;53.012;6.556;2023-06-14T14:42:07;3.92;;;1.65;;
52742;SDS011;55583;53.012;6.556;2023-06-14T14:44:33;1.92;;;1.30;;
52742;SDS011;55583;53.012;6.556;2023-06-14T14:46:58;1.80;;;1.30;;
52742;SDS011;55583;53.012;6.556;2023-06-14T14:49:24;2.55;;;1.65;;
52742;SDS011;55583;53.012;6.556;2023-06-14T14:51:50;3.55;;;1.50;;
52742;SDS011;55583;53.012;6.556;2023-06-14T14:54:15;3.38;;;1.75;;
52742;SDS011;55583;53.012;6.556;2023-06-14T14:56:41;4.45;;;2.20;;
52742;SDS011;55583;53.012;6.556;2023-06-14T14:59:07;2.47;;;1.40;;
52742;SDS011;55583;53.012;6.556;2023-06-14T15:01:32;1.42;;;1.33;;
52742;SDS011;55583;53.012;6.556;2023-06-14T15:03:58;3.17;;;1.40;;
52742;SDS011;55583;53.012;6.556;2023-06-14T15:06:24;4.47;;;1.75;;
52742;SDS011;55583;53.012;6.556;2023-06-14T15:08:49;2.40;;;1.60;;
52742;SDS011;55583;53.012;6.556;2023-06-14T15:11:16;4.70;;;1.88;;
52742;SDS011;55583;53.012;6.556;2023-06-14T15:13:41;2.78;;;1.42;;